Terminal Aerodrome Forecast
Issued by NWS

Home | Current Version | Previous Version | Text Only | Print | Product List | Glossary On
Versions: 1 2 3 4 5 6 7 8 9 10 11 12 13 14
000
FTUS43 KGRB 242328
TAFATW
TAF
KATW 242328Z 2500/2524 24007KT P6SM SCT050
     FM250700 03005KT P6SM SCT006
      TEMPO 2509/2513 3SM BR BKN005
     FM251500 09009G15KT P6SM SCT025 BKN250=

USA.gov is the U.S. government's official web portal to all federal, state and local government web resources and services.